sensor_id;sensor_type;location;lat;lon;timestamp;temperature;humidity
70271;SHT31;57680;54.292;18.598;2022-09-09T00:04:32;13.94;67.10
70271;SHT31;57680;54.292;18.598;2022-09-09T00:09:50;14.03;66.49
70271;SHT31;57680;54.292;18.598;2022-09-09T00:12:34;14.07;66.36
70271;SHT31;57680;54.292;18.598;2022-09-09T00:15:20;14.00;66.67
70271;SHT31;57680;54.292;18.598;2022-09-09T00:21:00;14.14;66.13
70271;SHT31;57680;54.292;18.598;2022-09-09T00:23:34;14.10;66.05
70271;SHT31;57680;54.292;18.598;2022-09-09T00:26:22;14.06;66.24
70271;SHT31;57680;54.292;18.598;2022-09-09T00:31:39;14.00;66.49
70271;SHT31;57680;54.292;18.598;2022-09-09T00:34:11;13.99;66.64
70271;SHT31;57680;54.292;18.598;2022-09-09T00:36:38;13.90;67.01
70271;SHT31;57680;54.292;18.598;2022-09-09T00:39:04;13.82;67.31
70271;SHT31;57680;54.292;18.598;2022-09-09T00:41:57;13.77;67.37
70271;SHT31;57680;54.292;18.598;2022-09-09T00:44:37;13.74;67.49
70271;SHT31;57680;54.292;18.598;2022-09-09T00:47:34;13.83;67.07
70271;SHT31;57680;54.292;18.598;2022-09-09T00:53:24;14.02;66.63
70271;SHT31;57680;54.292;18.598;2022-09-09T00:56:16;14.21;65.64
70271;SHT31;57680;54.292;18.598;2022-09-09T01:01:35;13.94;66.58
70271;SHT31;57680;54.292;18.598;2022-09-09T01:04:03;13.99;66.27
70271;SHT31;57680;54.292;18.598;2022-09-09T01:06:35;14.09;65.97
70271;SHT31;57680;54.292;18.598;2022-09-09T01:20:04;14.02;66.16
70271;SHT31;57680;54.292;18.598;2022-09-09T01:27:54;13.96;66.55
70271;SHT31;57680;54.292;18.598;2022-09-09T01:30:22;13.91;66.56
70271;SHT31;57680;54.292;18.598;2022-09-09T01:32:54;13.97;66.64
70271;SHT31;57680;54.292;18.598;2022-09-09T01:41:34;13.91;66.66
70271;SHT31;57680;54.292;18.598;2022-09-09T01:44:00;13.91;66.65
70271;SHT31;57680;54.292;18.598;2022-09-09T01:46:26;13.97;66.44
70271;SHT31;57680;54.292;18.598;2022-09-09T01:48:55;13.84;66.99
70271;SHT31;57680;54.292;18.598;2022-09-09T01:51:21;13.84;67.59
70271;SHT31;57680;54.292;18.598;2022-09-09T01:53:47;13.84;67.26
70271;SHT31;57680;54.292;18.598;2022-09-09T01:56:51;13.86;67.39
70271;SHT31;57680;54.292;18.598;2022-09-09T02:02:14;13.83;67.53
70271;SHT31;57680;54.292;18.598;2022-09-09T02:04:48;13.86;67.12
70271;SHT31;57680;54.292;18.598;2022-09-09T02:10:09;13.82;67.25
70271;SHT31;57680;54.292;18.598;2022-09-09T02:12:39;13.86;67.24
70271;SHT31;57680;54.292;18.598;2022-09-09T02:15:18;13.84;67.44
70271;SHT31;57680;54.292;18.598;2022-09-09T02:17:46;13.77;67.88
70271;SHT31;57680;54.292;18.598;2022-09-09T02:20:14;13.74;67.82
70271;SHT31;57680;54.292;18.598;2022-09-09T02:22:42;13.76;67.74
70271;SHT31;57680;54.292;18.598;2022-09-09T02:25:12;13.73;68.15
70271;SHT31;57680;54.292;18.598;2022-09-09T02:27:40;13.69;68.27
70271;SHT31;57680;54.292;18.598;2022-09-09T02:30:07;13.76;67.74
70271;SHT31;57680;54.292;18.598;2022-09-09T02:32:34;13.80;68.18
70271;SHT31;57680;54.292;18.598;2022-09-09T02:35:05;13.69;68.59
70271;SHT31;57680;54.292;18.598;2022-09-09T02:37:36;13.70;68.53
70271;SHT31;57680;54.292;18.598;2022-09-09T02:40:07;13.67;68.62
70271;SHT31;57680;54.292;18.598;2022-09-09T02:42:41;13.61;68.83
70271;SHT31;57680;54.292;18.598;2022-09-09T02:45:09;13.56;69.04
70271;SHT31;57680;54.292;18.598;2022-09-09T02:50:57;13.56;68.97
70271;SHT31;57680;54.292;18.598;2022-09-09T02:53:26;13.58;68.85
70271;SHT31;57680;54.292;18.598;2022-09-09T02:56:17;13.53;69.39
70271;SHT31;57680;54.292;18.598;2022-09-09T02:58:44;13.59;69.02
70271;SHT31;57680;54.292;18.598;2022-09-09T03:01:09;13.51;69.64
70271;SHT31;57680;54.292;18.598;2022-09-09T03:03:35;13.52;70.12
70271;SHT31;57680;54.292;18.598;2022-09-09T03:06:01;13.43;71.05
70271;SHT31;57680;54.292;18.598;2022-09-09T03:08:26;13.46;71.44
70271;SHT31;57680;54.292;18.598;2022-09-09T03:10:54;13.34;72.66
70271;SHT31;57680;54.292;18.598;2022-09-09T03:13:20;13.24;74.85
70271;SHT31;57680;54.292;18.598;2022-09-09T03:15:47;13.07;77.42
70271;SHT31;57680;54.292;18.598;2022-09-09T03:18:13;12.83;80.49
70271;SHT31;57680;54.292;18.598;2022-09-09T03:20:39;12.59;83.37
70271;SHT31;57680;54.292;18.598;2022-09-09T03:23:04;12.49;85.11
70271;SHT31;57680;54.292;18.598;2022-09-09T03:25:30;12.30;87.05
70271;SHT31;57680;54.292;18.598;2022-09-09T03:27:56;12.16;88.20
70271;SHT31;57680;54.292;18.598;2022-09-09T03:30:22;12.09;88.92
70271;SHT31;57680;54.292;18.598;2022-09-09T03:32:48;12.05;88.73
70271;SHT31;57680;54.292;18.598;2022-09-09T03:35:14;12.02;88.89
70271;SHT31;57680;54.292;18.598;2022-09-09T03:37:41;11.98;89.35
70271;SHT31;57680;54.292;18.598;2022-09-09T03:40:07;11.94;89.60
70271;SHT31;57680;54.292;18.598;2022-09-09T03:42:35;11.88;89.98
70271;SHT31;57680;54.292;18.598;2022-09-09T03:45:03;11.84;90.29
70271;SHT31;57680;54.292;18.598;2022-09-09T03:47:29;11.84;90.56
70271;SHT31;57680;54.292;18.598;2022-09-09T03:49:55;11.79;90.88
70271;SHT31;57680;54.292;18.598;2022-09-09T03:52:20;11.78;91.09
70271;SHT31;57680;54.292;18.598;2022-09-09T03:54:47;11.73;91.31
70271;SHT31;57680;54.292;18.598;2022-09-09T03:57:13;11.71;91.78
70271;SHT31;57680;54.292;18.598;2022-09-09T03:59:42;11.70;91.82
70271;SHT31;57680;54.292;18.598;2022-09-09T04:02:07;11.64;92.12
70271;SHT31;57680;54.292;18.598;2022-09-09T04:04:32;11.63;92.45
70271;SHT31;57680;54.292;18.598;2022-09-09T04:06:58;11.61;92.50
70271;SHT31;57680;54.292;18.598;2022-09-09T04:09:23;11.58;92.72
70271;SHT31;57680;54.292;18.598;2022-09-09T04:11:49;11.57;92.99
70271;SHT31;57680;54.292;18.598;2022-09-09T04:14:15;11.58;93.12
70271;SHT31;57680;54.292;18.598;2022-09-09T04:16:40;11.54;93.23
70271;SHT31;57680;54.292;18.598;2022-09-09T04:19:11;11.57;93.45
70271;SHT31;57680;54.292;18.598;2022-09-09T04:21:39;11.55;93.69
70271;SHT31;57680;54.292;18.598;2022-09-09T04:24:06;11.57;93.77
70271;SHT31;57680;54.292;18.598;2022-09-09T04:26:32;11.57;93.92
70271;SHT31;57680;54.292;18.598;2022-09-09T04:28:58;11.58;94.00
70271;SHT31;57680;54.292;18.598;2022-09-09T04:31:24;11.55;94.35
70271;SHT31;57680;54.292;18.598;2022-09-09T04:33:50;11.53;94.54
70271;SHT31;57680;54.292;18.598;2022-09-09T04:36:16;11.51;94.82
70271;SHT31;57680;54.292;18.598;2022-09-09T04:38:43;11.50;95.01
70271;SHT31;57680;54.292;18.598;2022-09-09T04:41:09;11.50;95.08
70271;SHT31;57680;54.292;18.598;2022-09-09T04:43:39;11.48;95.05
70271;SHT31;57680;54.292;18.598;2022-09-09T04:46:05;11.50;95.51
70271;SHT31;57680;54.292;18.598;2022-09-09T04:48:31;11.48;95.34
70271;SHT31;57680;54.292;18.598;2022-09-09T04:50:57;11.51;95.24
70271;SHT31;57680;54.292;18.598;2022-09-09T04:53:23;11.51;95.13
70271;SHT31;57680;54.292;18.598;2022-09-09T04:55:49;11.51;94.93
70271;SHT31;57680;54.292;18.598;2022-09-09T04:58:14;11.48;94.89
70271;SHT31;57680;54.292;18.598;2022-09-09T05:00:40;11.48;94.76
70271;SHT31;57680;54.292;18.598;2022-09-09T05:03:05;11.47;94.70
70271;SHT31;57680;54.292;18.598;2022-09-09T05:05:32;11.51;94.35
70271;SHT31;57680;54.292;18.598;2022-09-09T05:08:03;11.48;94.17
70271;SHT31;57680;54.292;18.598;2022-09-09T05:10:30;11.41;94.08
70271;SHT31;57680;54.292;18.598;2022-09-09T05:12:56;11.43;94.27
70271;SHT31;57680;54.292;18.598;2022-09-09T05:15:22;11.45;94.20
70271;SHT31;57680;54.292;18.598;2022-09-09T05:17:47;11.44;94.14
70271;SHT31;57680;54.292;18.598;2022-09-09T05:20:13;11.45;94.16
70271;SHT31;57680;54.292;18.598;2022-09-09T05:22:38;11.47;94.46
70271;SHT31;57680;54.292;18.598;2022-09-09T05:25:04;11.40;94.77
70271;SHT31;57680;54.292;18.598;2022-09-09T05:27:30;11.40;94.72
70271;SHT31;57680;54.292;18.598;2022-09-09T05:29:58;11.40;94.77
70271;SHT31;57680;54.292;18.598;2022-09-09T05:32:23;11.47;94.10
70271;SHT31;57680;54.292;18.598;2022-09-09T05:34:49;11.47;94.29
70271;SHT31;57680;54.292;18.598;2022-09-09T05:37:15;11.40;94.46
70271;SHT31;57680;54.292;18.598;2022-09-09T05:39:42;11.31;94.98
70271;SHT31;57680;54.292;18.598;2022-09-09T05:42:07;11.34;95.32
70271;SHT31;57680;54.292;18.598;2022-09-09T05:44:33;11.24;95.29
70271;SHT31;57680;54.292;18.598;2022-09-09T05:46:58;11.30;94.61
70271;SHT31;57680;54.292;18.598;2022-09-09T05:49:24;11.34;93.99
70271;SHT31;57680;54.292;18.598;2022-09-09T05:51:50;11.27;94.68
70271;SHT31;57680;54.292;18.598;2022-09-09T05:54:16;11.20;93.41
70271;SHT31;57680;54.292;18.598;2022-09-09T05:56:42;11.12;94.17
70271;SHT31;57680;54.292;18.598;2022-09-09T05:59:08;10.99;94.57
70271;SHT31;57680;54.292;18.598;2022-09-09T06:01:36;11.00;94.14
70271;SHT31;57680;54.292;18.598;2022-09-09T06:04:05;10.99;94.40
70271;SHT31;57680;54.292;18.598;2022-09-09T06:06:33;10.97;95.25
70271;SHT31;57680;54.292;18.598;2022-09-09T06:09:03;10.92;94.90
70271;SHT31;57680;54.292;18.598;2022-09-09T06:11:33;10.91;95.05
70271;SHT31;57680;54.292;18.598;2022-09-09T06:13:59;11.02;94.86
70271;SHT31;57680;54.292;18.598;2022-09-09T06:16:26;10.91;95.15
70271;SHT31;57680;54.292;18.598;2022-09-09T06:18:53;10.83;95.58
70271;SHT31;57680;54.292;18.598;2022-09-09T06:21:25;10.85;95.83
70271;SHT31;57680;54.292;18.598;2022-09-09T06:23:51;10.83;95.34
70271;SHT31;57680;54.292;18.598;2022-09-09T06:28:49;10.91;94.79
70271;SHT31;57680;54.292;18.598;2022-09-09T06:31:16;10.92;94.87
70271;SHT31;57680;54.292;18.598;2022-09-09T06:33:43;11.02;94.33
70271;SHT31;57680;54.292;18.598;2022-09-09T06:36:19;10.92;93.78
70271;SHT31;57680;54.292;18.598;2022-09-09T06:38:45;10.92;93.85
70271;SHT31;57680;54.292;18.598;2022-09-09T06:41:13;10.83;94.24
70271;SHT31;57680;54.292;18.598;2022-09-09T06:43:39;10.82;94.45
70271;SHT31;57680;54.292;18.598;2022-09-09T06:46:09;10.82;93.83
70271;SHT31;57680;54.292;18.598;2022-09-09T06:48:36;10.80;93.94
70271;SHT31;57680;54.292;18.598;2022-09-09T06:53:35;10.85;94.28
70271;SHT31;57680;54.292;18.598;2022-09-09T06:58:45;10.93;93.51
70271;SHT31;57680;54.292;18.598;2022-09-09T07:01:15;10.89;93.46
70271;SHT31;57680;54.292;18.598;2022-09-09T07:03:42;10.83;93.94
70271;SHT31;57680;54.292;18.598;2022-09-09T07:06:14;10.79;94.43
70271;SHT31;57680;54.292;18.598;2022-09-09T07:08:40;10.83;93.91
70271;SHT31;57680;54.292;18.598;2022-09-09T07:11:07;10.92;93.04
70271;SHT31;57680;54.292;18.598;2022-09-09T07:13:34;10.91;93.04
70271;SHT31;57680;54.292;18.598;2022-09-09T07:16:26;10.79;93.59
70271;SHT31;57680;54.292;18.598;2022-09-09T07:18:57;10.82;93.75
70271;SHT31;57680;54.292;18.598;2022-09-09T07:21:27;10.86;93.93
70271;SHT31;57680;54.292;18.598;2022-09-09T07:23:53;10.82;93.46
70271;SHT31;57680;54.292;18.598;2022-09-09T07:26:22;10.77;93.75
70271;SHT31;57680;54.292;18.598;2022-09-09T07:28:48;10.80;93.88
70271;SHT31;57680;54.292;18.598;2022-09-09T07:31:19;10.83;93.21
70271;SHT31;57680;54.292;18.598;2022-09-09T07:33:46;10.85;93.52
70271;SHT31;57680;54.292;18.598;2022-09-09T07:36:25;10.82;93.91
70271;SHT31;57680;54.292;18.598;2022-09-09T07:38:58;10.80;93.32
70271;SHT31;57680;54.292;18.598;2022-09-09T07:41:27;10.82;94.22
70271;SHT31;57680;54.292;18.598;2022-09-09T07:43:53;10.76;94.62
70271;SHT31;57680;54.292;18.598;2022-09-09T07:46:21;10.82;94.30
70271;SHT31;57680;54.292;18.598;2022-09-09T07:48:51;10.80;94.01
70271;SHT31;57680;54.292;18.598;2022-09-09T07:51:23;10.75;94.21
70271;SHT31;57680;54.292;18.598;2022-09-09T07:53:53;10.77;94.76
70271;SHT31;57680;54.292;18.598;2022-09-09T07:56:19;10.88;94.08
70271;SHT31;57680;54.292;18.598;2022-09-09T07:58:49;10.82;94.76
70271;SHT31;57680;54.292;18.598;2022-09-09T08:01:18;10.86;95.00
70271;SHT31;57680;54.292;18.598;2022-09-09T08:03:45;10.88;94.92
70271;SHT31;57680;54.292;18.598;2022-09-09T08:06:11;10.91;94.68
70271;SHT31;57680;54.292;18.598;2022-09-09T08:08:38;10.88;94.56
70271;SHT31;57680;54.292;18.598;2022-09-09T08:11:13;10.88;94.90
70271;SHT31;57680;54.292;18.598;2022-09-09T08:13:41;10.89;94.78
70271;SHT31;57680;54.292;18.598;2022-09-09T08:16:18;10.86;94.73
70271;SHT31;57680;54.292;18.598;2022-09-09T08:18:44;10.89;95.39
70271;SHT31;57680;54.292;18.598;2022-09-09T08:21:15;10.91;95.80
70271;SHT31;57680;54.292;18.598;2022-09-09T08:23:43;11.02;94.51
70271;SHT31;57680;54.292;18.598;2022-09-09T08:26:15;11.02;94.45
70271;SHT31;57680;54.292;18.598;2022-09-09T08:28:41;10.96;95.02
70271;SHT31;57680;54.292;18.598;2022-09-09T08:33:33;10.95;94.55
70271;SHT31;57680;54.292;18.598;2022-09-09T08:35:59;10.97;95.07
70271;SHT31;57680;54.292;18.598;2022-09-09T08:38:24;11.03;95.30
70271;SHT31;57680;54.292;18.598;2022-09-09T08:40:53;11.00;94.16
70271;SHT31;57680;54.292;18.598;2022-09-09T08:43:25;11.04;94.49
70271;SHT31;57680;54.292;18.598;2022-09-09T08:52:32;11.17;94.60
70271;SHT31;57680;54.292;18.598;2022-09-09T08:58:04;11.20;94.50
70271;SHT31;57680;54.292;18.598;2022-09-09T09:00:44;11.26;94.77
70271;SHT31;57680;54.292;18.598;2022-09-09T09:03:23;11.17;95.21
70271;SHT31;57680;54.292;18.598;2022-09-09T09:11:20;11.20;94.56
70271;SHT31;57680;54.292;18.598;2022-09-09T09:13:58;11.27;94.96
70271;SHT31;57680;54.292;18.598;2022-09-09T09:16:31;11.27;94.87
70271;SHT31;57680;54.292;18.598;2022-09-09T09:18:59;11.33;94.80
70271;SHT31;57680;54.292;18.598;2022-09-09T09:23:59;11.38;94.58
70271;SHT31;57680;54.292;18.598;2022-09-09T09:26:30;11.44;94.64
70271;SHT31;57680;54.292;18.598;2022-09-09T09:28:56;11.37;94.83
70271;SHT31;57680;54.292;18.598;2022-09-09T09:31:22;11.22;93.86
70271;SHT31;57680;54.292;18.598;2022-09-09T09:33:55;11.31;94.71
70271;SHT31;57680;54.292;18.598;2022-09-09T09:36:25;11.37;94.72
70271;SHT31;57680;54.292;18.598;2022-09-09T09:38:59;11.41;93.84
70271;SHT31;57680;54.292;18.598;2022-09-09T09:44:04;11.28;94.92
70271;SHT31;57680;54.292;18.598;2022-09-09T09:46:31;11.41;93.96
70271;SHT31;57680;54.292;18.598;2022-09-09T09:49:09;11.40;94.83
70271;SHT31;57680;54.292;18.598;2022-09-09T09:51:35;11.41;94.54
70271;SHT31;57680;54.292;18.598;2022-09-09T09:54:18;11.38;94.69
70271;SHT31;57680;54.292;18.598;2022-09-09T09:56:48;11.47;94.66
70271;SHT31;57680;54.292;18.598;2022-09-09T09:59:32;11.54;94.94
70271;SHT31;57680;54.292;18.598;2022-09-09T10:02:14;11.54;93.96
70271;SHT31;57680;54.292;18.598;2022-09-09T10:04:41;11.64;95.35
70271;SHT31;57680;54.292;18.598;2022-09-09T10:07:18;11.65;94.78
70271;SHT31;57680;54.292;18.598;2022-09-09T10:09:44;11.61;94.52
70271;SHT31;57680;54.292;18.598;2022-09-09T10:15:43;11.77;95.19
70271;SHT31;57680;54.292;18.598;2022-09-09T10:26:47;11.94;93.26
70271;SHT31;57680;54.292;18.598;2022-09-09T10:32:09;11.98;93.47
70271;SHT31;57680;54.292;18.598;2022-09-09T10:37:38;12.05;93.60
70271;SHT31;57680;54.292;18.598;2022-09-09T10:42:52;12.18;94.22
70271;SHT31;57680;54.292;18.598;2022-09-09T10:45:32;12.21;93.89
70271;SHT31;57680;54.292;18.598;2022-09-09T10:53:53;12.19;94.09
70271;SHT31;57680;54.292;18.598;2022-09-09T10:56:23;12.26;94.12
70271;SHT31;57680;54.292;18.598;2022-09-09T11:03:52;12.37;93.47
70271;SHT31;57680;54.292;18.598;2022-09-09T11:06:21;12.37;92.91
70271;SHT31;57680;54.292;18.598;2022-09-09T11:08:49;12.39;93.58
70271;SHT31;57680;54.292;18.598;2022-09-09T11:11:25;12.46;93.56
70271;SHT31;57680;54.292;18.598;2022-09-09T11:24:40;12.63;94.10
70271;SHT31;57680;54.292;18.598;2022-09-09T11:30:11;12.59;93.12
70271;SHT31;57680;54.292;18.598;2022-09-09T11:38:28;12.77;92.89
70271;SHT31;57680;54.292;18.598;2022-09-09T11:40:59;12.68;93.15
70271;SHT31;57680;54.292;18.598;2022-09-09T11:43:41;12.63;92.93
70271;SHT31;57680;54.292;18.598;2022-09-09T11:46:08;12.61;93.44
70271;SHT31;57680;54.292;18.598;2022-09-09T11:48:36;12.61;94.03
70271;SHT31;57680;54.292;18.598;2022-09-09T11:51:10;12.64;92.46
70271;SHT31;57680;54.292;18.598;2022-09-09T11:54:44;12.33;93.47
70271;SHT31;57680;54.292;18.598;2022-09-09T11:56:44;12.37;94.05
70271;SHT31;57680;54.292;18.598;2022-09-09T12:02:35;12.26;94.38
70271;SHT31;57680;54.292;18.598;2022-09-09T12:04:40;12.21;94.66
70271;SHT31;57680;54.292;18.598;2022-09-09T12:19:40;12.35;94.94
70271;SHT31;57680;54.292;18.598;2022-09-09T12:24:50;12.35;95.75
70271;SHT31;57680;54.292;18.598;2022-09-09T12:28:02;12.28;95.42
70271;SHT31;57680;54.292;18.598;2022-09-09T12:30:29;12.26;95.13
70271;SHT31;57680;54.292;18.598;2022-09-09T12:33:11;12.29;94.62
70271;SHT31;57680;54.292;18.598;2022-09-09T12:35:38;12.26;95.43
70271;SHT31;57680;54.292;18.598;2022-09-09T12:38:12;12.26;95.66
70271;SHT31;57680;54.292;18.598;2022-09-09T12:40:39;12.29;95.10
70271;SHT31;57680;54.292;18.598;2022-09-09T12:43:21;12.32;95.74
70271;SHT31;57680;54.292;18.598;2022-09-09T12:45:49;12.33;95.92
70271;SHT31;57680;54.292;18.598;2022-09-09T12:48:18;12.33;96.09
70271;SHT31;57680;54.292;18.598;2022-09-09T12:50:51;12.36;95.68
70271;SHT31;57680;54.292;18.598;2022-09-09T12:53:22;12.39;95.42
70271;SHT31;57680;54.292;18.598;2022-09-09T12:56:03;12.43;95.03
70271;SHT31;57680;54.292;18.598;2022-09-09T12:58:30;12.42;95.35
70271;SHT31;57680;54.292;18.598;2022-09-09T13:01:00;12.44;95.38
70271;SHT31;57680;54.292;18.598;2022-09-09T13:03:30;12.43;95.82
70271;SHT31;57680;54.292;18.598;2022-09-09T13:06:11;12.44;95.73
70271;SHT31;57680;54.292;18.598;2022-09-09T13:08:38;12.42;95.39
70271;SHT31;57680;54.292;18.598;2022-09-09T13:11:07;12.39;95.37
70271;SHT31;57680;54.292;18.598;2022-09-09T13:13:39;12.40;95.57
70271;SHT31;57680;54.292;18.598;2022-09-09T13:16:15;12.42;95.67
70271;SHT31;57680;54.292;18.598;2022-09-09T13:18:42;12.47;95.31
70271;SHT31;57680;54.292;18.598;2022-09-09T13:21:09;12.47;95.58
70271;SHT31;57680;54.292;18.598;2022-09-09T13:23:36;12.50;95.76
70271;SHT31;57680;54.292;18.598;2022-09-09T13:26:05;12.50;95.52
70271;SHT31;57680;54.292;18.598;2022-09-09T13:28:33;12.52;95.69
70271;SHT31;57680;54.292;18.598;2022-09-09T13:31:05;12.53;95.53
70271;SHT31;57680;54.292;18.598;2022-09-09T13:33:39;12.57;95.15
70271;SHT31;57680;54.292;18.598;2022-09-09T13:36:08;12.50;95.30
70271;SHT31;57680;54.292;18.598;2022-09-09T13:38:59;12.57;94.95
70271;SHT31;57680;54.292;18.598;2022-09-09T13:41:42;12.46;95.41
70271;SHT31;57680;54.292;18.598;2022-09-09T13:44:23;12.49;95.71
70271;SHT31;57680;54.292;18.598;2022-09-09T13:47:00;12.47;95.66
70271;SHT31;57680;54.292;18.598;2022-09-09T13:49:29;12.47;95.65
70271;SHT31;57680;54.292;18.598;2022-09-09T13:52:14;12.52;95.80
70271;SHT31;57680;54.292;18.598;2022-09-09T13:54:42;12.56;95.67
70271;SHT31;57680;54.292;18.598;2022-09-09T13:57:19;12.61;95.93
70271;SHT31;57680;54.292;18.598;2022-09-09T13:59:48;12.67;95.63
70271;SHT31;57680;54.292;18.598;2022-09-09T14:02:17;12.73;95.56
70271;SHT31;57680;54.292;18.598;2022-09-09T14:04:43;12.76;95.28
70271;SHT31;57680;54.292;18.598;2022-09-09T14:07:12;12.67;94.76
70271;SHT31;57680;54.292;18.598;2022-09-09T14:09:39;12.64;95.28
70271;SHT31;57680;54.292;18.598;2022-09-09T14:12:05;12.63;95.24
70271;SHT31;57680;54.292;18.598;2022-09-09T14:14:31;12.61;95.68
70271;SHT31;57680;54.292;18.598;2022-09-09T14:16:56;12.63;95.72
70271;SHT31;57680;54.292;18.598;2022-09-09T14:19:22;12.66;95.46
70271;SHT31;57680;54.292;18.598;2022-09-09T14:21:47;12.66;95.69
70271;SHT31;57680;54.292;18.598;2022-09-09T14:24:13;12.67;95.46
70271;SHT31;57680;54.292;18.598;2022-09-09T14:26:39;12.64;95.53
70271;SHT31;57680;54.292;18.598;2022-09-09T14:29:04;12.60;95.59
70271;SHT31;57680;54.292;18.598;2022-09-09T14:31:30;12.61;96.03
70271;SHT31;57680;54.292;18.598;2022-09-09T14:33:55;12.54;95.71
70271;SHT31;57680;54.292;18.598;2022-09-09T14:36:21;12.56;96.28
70271;SHT31;57680;54.292;18.598;2022-09-09T14:38:48;12.53;95.94
70271;SHT31;57680;54.292;18.598;2022-09-09T14:41:16;12.57;96.12
70271;SHT31;57680;54.292;18.598;2022-09-09T14:43:45;12.53;96.01
70271;SHT31;57680;54.292;18.598;2022-09-09T14:46:16;12.57;96.18
70271;SHT31;57680;54.292;18.598;2022-09-09T14:48:42;12.54;96.24
70271;SHT31;57680;54.292;18.598;2022-09-09T14:51:11;12.53;96.58
70271;SHT31;57680;54.292;18.598;2022-09-09T14:53:39;12.53;96.21
70271;SHT31;57680;54.292;18.598;2022-09-09T14:56:15;12.52;96.78
70271;SHT31;57680;54.292;18.598;2022-09-09T14:58:41;12.47;96.24
70271;SHT31;57680;54.292;18.598;2022-09-09T15:01:13;12.47;96.70
70271;SHT31;57680;54.292;18.598;2022-09-09T15:03:40;12.43;96.56
70271;SHT31;57680;54.292;18.598;2022-09-09T15:06:11;12.47;96.51
70271;SHT31;57680;54.292;18.598;2022-09-09T15:08:38;12.47;97.07
70271;SHT31;57680;54.292;18.598;2022-09-09T15:11:05;12.49;97.26
70271;SHT31;57680;54.292;18.598;2022-09-09T15:13:33;12.53;97.26
70271;SHT31;57680;54.292;18.598;2022-09-09T15:16:20;12.49;96.75
70271;SHT31;57680;54.292;18.598;2022-09-09T15:18:50;12.47;97.31
70271;SHT31;57680;54.292;18.598;2022-09-09T15:21:18;12.46;97.53
70271;SHT31;57680;54.292;18.598;2022-09-09T15:23:44;12.46;97.41
70271;SHT31;57680;54.292;18.598;2022-09-09T15:26:10;12.49;97.69
70271;SHT31;57680;54.292;18.598;2022-09-09T15:28:38;12.52;97.57
70271;SHT31;57680;54.292;18.598;2022-09-09T15:31:08;12.50;97.61
70271;SHT31;57680;54.292;18.598;2022-09-09T15:33:34;12.57;97.39
70271;SHT31;57680;54.292;18.598;2022-09-09T15:36:22;12.53;97.46
70271;SHT31;57680;54.292;18.598;2022-09-09T15:38:48;12.56;97.61
70271;SHT31;57680;54.292;18.598;2022-09-09T15:41:14;12.57;97.13
70271;SHT31;57680;54.292;18.598;2022-09-09T15:43:48;12.54;97.22
70271;SHT31;57680;54.292;18.598;2022-09-09T15:46:31;12.54;97.35
70271;SHT31;57680;54.292;18.598;2022-09-09T15:49:17;12.52;97.41
70271;SHT31;57680;54.292;18.598;2022-09-09T15:51:57;12.52;97.37
70271;SHT31;57680;54.292;18.598;2022-09-09T15:54:24;12.50;97.50
70271;SHT31;57680;54.292;18.598;2022-09-09T15:56:56;12.46;97.66
70271;SHT31;57680;54.292;18.598;2022-09-09T15:59:23;12.43;97.96
70271;SHT31;57680;54.292;18.598;2022-09-09T16:01:49;12.43;98.11
70271;SHT31;57680;54.292;18.598;2022-09-09T16:04:18;12.46;98.21
70271;SHT31;57680;54.292;18.598;2022-09-09T16:06:50;12.53;98.13
70271;SHT31;57680;54.292;18.598;2022-09-09T16:09:16;12.53;98.11
70271;SHT31;57680;54.292;18.598;2022-09-09T16:11:41;12.56;98.18
70271;SHT31;57680;54.292;18.598;2022-09-09T16:14:07;12.60;98.09
70271;SHT31;57680;54.292;18.598;2022-09-09T16:16:33;12.59;98.26
70271;SHT31;57680;54.292;18.598;2022-09-09T16:19:03;12.59;98.26
70271;SHT31;57680;54.292;18.598;2022-09-09T16:21:34;12.61;98.21
70271;SHT31;57680;54.292;18.598;2022-09-09T16:24:02;12.63;98.23
70271;SHT31;57680;54.292;18.598;2022-09-09T16:26:30;12.61;98.32
70271;SHT31;57680;54.292;18.598;2022-09-09T16:28:56;12.66;97.90
70271;SHT31;57680;54.292;18.598;2022-09-09T16:31:23;12.66;98.23
70271;SHT31;57680;54.292;18.598;2022-09-09T16:33:50;12.61;98.15
70271;SHT31;57680;54.292;18.598;2022-09-09T16:36:18;12.61;98.20
70271;SHT31;57680;54.292;18.598;2022-09-09T16:38:44;12.64;98.32
70271;SHT31;57680;54.292;18.598;2022-09-09T16:41:12;12.63;98.35
70271;SHT31;57680;54.292;18.598;2022-09-09T16:43:38;12.66;98.19
70271;SHT31;57680;54.292;18.598;2022-09-09T16:46:16;12.63;98.41
70271;SHT31;57680;54.292;18.598;2022-09-09T16:48:44;12.66;98.27
70271;SHT31;57680;54.292;18.598;2022-09-09T16:51:17;12.59;98.03
70271;SHT31;57680;54.292;18.598;2022-09-09T16:53:43;12.64;97.94
70271;SHT31;57680;54.292;18.598;2022-09-09T16:56:13;12.60;98.32
70271;SHT31;57680;54.292;18.598;2022-09-09T16:58:40;12.60;97.75
70271;SHT31;57680;54.292;18.598;2022-09-09T17:01:06;12.59;98.10
70271;SHT31;57680;54.292;18.598;2022-09-09T17:03:32;12.57;98.22
70271;SHT31;57680;54.292;18.598;2022-09-09T17:05:58;12.54;98.42
70271;SHT31;57680;54.292;18.598;2022-09-09T17:08:28;12.54;98.37
70271;SHT31;57680;54.292;18.598;2022-09-09T17:10:54;12.63;98.51
70271;SHT31;57680;54.292;18.598;2022-09-09T17:13:20;12.52;98.35
70271;SHT31;57680;54.292;18.598;2022-09-09T17:15:45;12.54;98.42
70271;SHT31;57680;54.292;18.598;2022-09-09T17:18:12;12.60;98.34
70271;SHT31;57680;54.292;18.598;2022-09-09T17:20:39;12.56;98.55
70271;SHT31;57680;54.292;18.598;2022-09-09T17:23:06;12.54;98.82
70271;SHT31;57680;54.292;18.598;2022-09-09T17:25:32;12.54;98.86
70271;SHT31;57680;54.292;18.598;2022-09-09T17:27:58;12.53;98.70
70271;SHT31;57680;54.292;18.598;2022-09-09T17:30:25;12.54;98.94
70271;SHT31;57680;54.292;18.598;2022-09-09T17:32:51;12.60;98.69
70271;SHT31;57680;54.292;18.598;2022-09-09T17:35:16;12.59;98.93
70271;SHT31;57680;54.292;18.598;2022-09-09T17:37:43;12.59;99.01
70271;SHT31;57680;54.292;18.598;2022-09-09T17:40:09;12.60;98.87
70271;SHT31;57680;54.292;18.598;2022-09-09T17:42:35;12.63;99.07
70271;SHT31;57680;54.292;18.598;2022-09-09T17:45:00;12.61;99.07
70271;SHT31;57680;54.292;18.598;2022-09-09T17:47:26;12.61;99.06
70271;SHT31;57680;54.292;18.598;2022-09-09T17:49:53;12.64;99.02
70271;SHT31;57680;54.292;18.598;2022-09-09T17:52:19;12.67;98.93
70271;SHT31;57680;54.292;18.598;2022-09-09T17:54:45;12.68;98.62
70271;SHT31;57680;54.292;18.598;2022-09-09T17:57:10;12.68;99.05
70271;SHT31;57680;54.292;18.598;2022-09-09T17:59:36;12.72;99.13